Flight Track Log - Related Links

Times and Time Zones

All times are in EDT time to prevent confusion due to time zone crossing. See the DAL268 flight status page for this flight to view local times or setup timezone preferences in your user account.

Time Position Orientation Groundspeed Altitude Reporting Facility
EDT Latitude Longitude Course Direction KTS MPH feet Rate Location/Type
Sat 01:52:57 40.6080 -73.7900 208° Southwest 180 207 700  Level FlightAware
Sat 01:53:27 40.5870 -73.8120 219° Southwest 187 215 1,600 1,650 Climbing FlightAware
Sat 01:53:37 40.5810 -73.8190 222° Southwest 198 228 1,800 900 Climbing FlightAware
Sat 01:54:07 40.5570 -73.8420 216° Southwest 243 280 2,200 933 Climbing FlightAware
Sat 01:54:22 40.5370 -73.8450 187° South 268 308 2,500 1,400 Climbing FlightAware
Sat 01:54:37 40.5210 -73.8390 164° South 281 323 2,900 2,550 Climbing FlightAware
Sat 01:55:02 40.4930 -73.8120 144° Southeast 289 333 4,200 2,700 Climbing FlightAware
Sat 01:55:17 40.4860 -73.7880 111° Southeast 302 348 4,700 2,182 Climbing FlightAware
Sat 01:55:24 40.4848 -73.7725 96° East 312 359 5,000 2,400 Climbing FlightAware
Sat 01:55:27 40.4854 -73.7660 83° East 314 361 5,100 2,571 Climbing FlightAware
Sat 01:55:31 40.4865 -73.7582 79° East 317 365 5,300 2,667 Climbing FlightAware
Sat 01:55:36 40.4887 -73.7491 72° East 320 368 5,500 3,000 Climbing FlightAware
Sat 01:55:41 40.4918 -73.7401 66° East 322 371 5,800 2,118 Climbing FlightAware
Sat 01:55:53 40.5005 -73.7187 62° Northeast 330 380 6,100 1,600 Climbing FlightAware
Sat 01:55:56 40.5024 -73.7130 66° East 331 381 6,200 2,667 Climbing FlightAware
Sat 01:56:02 40.5049 -73.7029 72° East 330 380 6,500 2,400 Climbing FlightAware
Sat 01:56:06 40.5065 -73.6946 76° East 331 381 6,600 1,333 Climbing FlightAware
Sat 01:56:11 40.5075 -73.6845 83° East 332 382 6,700 1,895 Climbing FlightAware
Sat 01:56:25 40.5080 -73.6567 89° East 334 384 7,200 2,400 Climbing FlightAware
Sat 01:56:41 40.5076 -73.6244 91° East 338 389 7,900 2,516 Climbing FlightAware
Sat 01:56:56 40.5085 -73.5925 88° East 341 392 8,500 2,710 Climbing FlightAware
Sat 01:57:12 40.5100 -73.5596 87° East 341 392 9,300 2,538 Climbing FlightAware
Sat 01:57:22 40.5112 -73.5394 86° East 346 398 9,600 1,875 Climbing FlightAware
Sat 01:57:28 40.5123 -73.5270 83° East 352 405 9,800 1,800 Climbing FlightAware
Sat 01:57:32 40.5135 -73.5173 81° East 360 414 9,900 1,714 Climbing FlightAware
Sat 01:57:35 40.5151 -73.5101 74° East 366 421 10,000 1,765 Climbing FlightAware
Sat 01:58:06 40.5382 -73.4468 64° Northeast 391 450 10,900 1,452 Climbing FlightAware
Sat 01:58:37 40.5644 -73.3783 63° Northeast 419 482 11,500 1,143 Climbing FlightAware
Sat 01:59:09 40.5932 -73.3025 63° Northeast 445 512 12,100 1,224 Climbing FlightAware
Sat 01:59:26 40.6094 -73.2615 62° Northeast 459 528 12,500 1,660 Climbing FlightAware
Sat 01:59:56 40.6474 -73.1915 54° Northeast 478 550 13,400 1,967 Climbing FlightAware
Sat 02:00:27 40.6931 -73.1236 48° Northeast 486 559 14,500 1,967 Climbing FlightAware
Sat 02:00:57 40.7391 -73.0544 49° Northeast 498 573 15,400 1,869 Climbing FlightAware
Sat 02:01:28 40.7858 -72.9842 49° Northeast 507 583 16,400 1,770 Climbing FlightAware
Sat 02:01:58 40.8329 -72.9134 49° Northeast 517 595 17,200 1,600 Climbing FlightAware
Sat 02:02:28 40.8808 -72.8410 49° Northeast 527 606 18,000 1,615 Climbing FlightAware
Sat 02:03:16 40.9585 -72.7236 49° Northeast 532 612 19,300 1,800 Climbing FlightAware
Sat 02:04:08 41.0435 -72.5947 49° Northeast 542 624 21,000 1,676 Climbing FlightAware
Sat 02:05:07 41.1370 -72.4530 49° Northeast 542 624 22,400 1,416 Climbing FlightAware
Sat 02:05:37 41.1810 -72.3850 49° Northeast 555 639 23,100 1,575 Climbing FlightAware
Sat 02:06:27 41.2660 -72.2540 49° Northeast 557 641 24,500 1,516 Climbing FlightAware
Sat 02:07:12 41.3400 -72.1400 49° Northeast 564 649 25,500 1,341 Climbing FlightAware
Sat 02:07:52 41.4150 -72.0240 49° Northeast 568 654 26,400 1,200 Climbing FlightAware
Sat 02:08:32 41.4840 -71.9180 49° Northeast 574 661 27,100 1,059 Climbing FlightAware
Sat 02:09:17 41.5610 -71.7970 50° Northeast 580 667 27,900 1,271 Climbing FlightAware
Sat 02:09:57 41.6310 -71.6880 49° Northeast 577 664 28,900 1,482 Climbing FlightAware
Sat 02:10:42 41.7050 -71.5730 49° Northeast 571 657 30,000 1,341 Climbing FlightAware
Sat 02:11:22 41.7760 -71.4600 50° Northeast 570 656 30,800 706 Climbing FlightAware
Sat 02:12:07 41.8550 -71.3360 49° Northeast 572 658 31,000 141 Climbing FlightAware
Sat 02:12:47 41.9230 -71.2270 50° Northeast 572 658 31,000  Level FlightAware
Sat 02:13:27 41.9900 -71.1200 50° Northeast 572 658 31,000  Level FlightAware
Sat 02:14:12 42.0670 -70.9970 50° Northeast 571 657 31,000  Level FlightAware
Sat 02:14:52 42.1320 -70.8920 50° Northeast 570 656 31,000  Level FlightAware
Sat 02:15:32 42.2000 -70.7830 50° Northeast 568 654 31,000  Level FlightAware
Sat 02:16:17 42.2770 -70.6580 50° Northeast 568 654 31,000  Level FlightAware
Sat 02:16:57 42.3430 -70.5500 50° Northeast 568 654 31,000  Level FlightAware
Sat 02:17:42 42.4250 -70.4170 50° Northeast 564 649 31,000  Level FlightAware
Sat 02:18:17 42.4820 -70.3240 50° Northeast 561 646 31,000  Level FlightAware
Sat 02:19:02 42.5580 -70.1980 51° Northeast 561 646 31,000  Level FlightAware
Sat 02:21:22 42.7850 -69.8240 50° Northeast 563 648 31,000  Level FlightAware
Sat 02:22:02 42.8520 -69.7100 51° Northeast 560 644 31,000  Level FlightAware
Sat 02:22:47 42.9270 -69.5850 51° Northeast 561 646 31,000  Level FlightAware
Sat 02:23:32 43.0020 -69.4580 51° Northeast 565 650 31,000  Level FlightAware
Sat 02:24:12 43.0640 -69.3530 51° Northeast 568 654 31,000  Level FlightAware
Sat 02:24:52 43.1340 -69.2350 51° Northeast 569 655 31,000  Level FlightAware
Sat 02:25:37 43.2070 -69.1090 51° Northeast 569 655 31,000  Level FlightAware
Sat 02:26:07 43.2520 -69.0330 51° Northeast 569 655 31,000  Level FlightAware
Sat 02:27:12 43.3590 -68.8500 51° Northeast 569 655 31,000  Level FlightAware
Sat 02:27:52 43.4150 -68.7540 51° Northeast 569 655 31,000  Level FlightAware
Sat 02:28:37 43.4870 -68.6290 52° Northeast 570 656 31,000  Level FlightAware
Sat 02:29:22 43.5660 -68.4900 52° Northeast 572 658 31,000  Level FlightAware
Sat 02:29:52 43.6170 -68.4000 52° Northeast 571 657 31,000  Level FlightAware
Sat 02:30:37 43.6860 -68.2820 51° Northeast 571 657 31,000  Level FlightAware
Sat 02:31:27 43.7570 -68.1610 51° Northeast 571 657 31,000  Level FlightAware
Sat 02:32:47 43.9050 -67.8900 53° Northeast 573 659 31,000  Level FlightAware
Sat 02:34:02 44.0280 -67.6710 52° Northeast 575 662 31,000 -41 Level FlightAware
Sat 02:35:12 44.1410 -67.4660 52° Northeast 567 652 30,900  Descending FlightAware
Sat 02:36:32 44.2700 -67.2340 52° Northeast 567 652 31,000 40 Climbing FlightAware
Sat 02:37:42 44.3820 -67.0290 53° Northeast 567 652 31,000 343 Level FlightAware
Sat 02:38:52 44.4930 -66.8220 53° Northeast 566 651 31,800 887 Climbing FlightAware
Sat 02:39:37 44.5660 -66.6880 53° Northeast 568 654 32,700 847 Climbing FlightAware
Sat 02:40:17 44.6280 -66.5710 53° Northeast 569 655 33,000 212 Climbing FlightAware
Sat 02:41:02 44.7010 -66.4360 53° Northeast 568 654 33,000  Level FlightAware
Sat 02:41:42 44.7620 -66.3200 53° Northeast 566 651 33,000  Level FlightAware
Sat 02:42:22 44.8260 -66.2000 53° Northeast 566 651 33,000  Level FlightAware
Sat 02:43:07 44.8960 -66.0670 53° Northeast 565 650 33,000  Level FlightAware
Sat 02:43:47 44.9570 -65.9510 53° Northeast 565 650 33,000  Level FlightAware
Sat 02:44:32 45.0280 -65.8150 54° Northeast 565 650 33,000  Level FlightAware
Sat 02:45:12 45.0890 -65.6970 54° Northeast 556 640 33,000  Level FlightAware
Sat 02:45:52 45.1510 -65.5780 54° Northeast 554 638 33,000  Level FlightAware
Sat 02:46:37 45.2200 -65.4450 54° Northeast 553 636 33,000  Level FlightAware
Sat 02:47:17 45.2810 -65.3260 54° Northeast 553 636 33,000  Level FlightAware
Sat 02:48:02 45.3530 -65.1850 54° Northeast 554 638 33,000  Level FlightAware
Sat 02:48:42 45.4130 -65.0670 54° Northeast 561 646 33,000  Level FlightAware
Sat 02:49:22 45.4740 -64.9460 54° Northeast 561 646 33,000  Level FlightAware
Sat 02:50:07 45.5440 -64.8090 54° Northeast 561 646 33,000  Level FlightAware
Sat 02:50:47 45.6000 -64.6970 54° Northeast 564 649 33,000  Level FlightAware
Sat 02:51:27 45.6600 -64.5770 54° Northeast 565 650 33,000  Level FlightAware
Sat 02:52:12 45.7340 -64.4290 54° Northeast 566 651 33,000  Level FlightAware
Sat 02:52:52 45.7900 -64.3160 55° Northeast 565 650 33,000  Level FlightAware
Sat 02:53:32 45.8530 -64.1880 55° Northeast 564 649 33,000  Level FlightAware
Sat 02:54:17 45.9130 -64.0700 54° Northeast 564 649 33,000  Level FlightAware
Sat 02:54:52 45.9710 -63.9490 55° Northeast 562 647 33,000  Level FlightAware
Sat 02:55:32 46.0310 -63.8240 55° Northeast 564 649 33,000  Level FlightAware
Sat 02:56:17 46.0930 -63.6970 55° Northeast 563 648 33,000  Level FlightAware
Sat 02:57:07 46.1560 -63.5660 55° Northeast 563 648 33,000  Level FlightAware
Sat 02:57:47 46.2070 -63.4620 55° Northeast 563 648 33,000  Level FlightAware
Sat 02:58:27 46.2580 -63.3570 55° Northeast 563 648 33,000  Level FlightAware
Sat 02:59:02 46.3440 -63.1730 56° Northeast 561 646 33,000  Level FlightAware
Sat 02:59:47 46.4020 -63.0520 55° Northeast 561 646 33,000  Level FlightAware
Sat 03:00:37 46.4650 -62.9210 55° Northeast 561 646 33,000  Level FlightAware
Sat 03:01:17 46.5390 -62.7600 56° Northeast 561 646 33,000  Level FlightAware
Sat 03:01:52 46.5920 -62.6450 56° Northeast 561 646 33,000  Level FlightAware
Sat 03:02:42 46.6670 -62.4840 56° Northeast 560 644 33,000  Level FlightAware
Sat 03:03:22 46.7240 -62.3610 56° Northeast 559 643 33,000  Level FlightAware
Sat 03:04:02 46.7830 -62.2340 56° Northeast 562 647 33,000  Level FlightAware
Sat 03:04:47 46.8460 -62.0960 56° Northeast 561 646 33,000  Level FlightAware
Sat 03:05:27 46.9040 -61.9690 56° Northeast 561 646 33,000  Level FlightAware
Sat 03:06:12 46.9690 -61.8250 56° Northeast 561 646 33,000  Level FlightAware
Sat 03:06:52 47.0260 -61.6990 56° Northeast 560 644 33,000  Level FlightAware
Sat 03:07:37 47.0900 -61.5570 56° Northeast 557 641 33,000  Level FlightAware
Sat 03:08:17 47.1460 -61.4300 57° Northeast 556 640 33,000  Level FlightAware
Sat 03:09:02 47.2110 -61.2860 56° Northeast 555 639 33,000  Level FlightAware
Sat 03:09:42 47.2670 -61.1590 57° Northeast 555 639 33,000  Level FlightAware
Sat 03:10:22 47.3230 -61.0330 57° Northeast 553 636 33,000  Level FlightAware
Sat 03:11:17 47.3940 -60.8710 57° Northeast 553 636 33,000  Level FlightAware
Sat 03:11:57 47.4420 -60.7630 57° Northeast 553 636 33,000  Level FlightAware
Sat 03:12:37 47.4890 -60.6550 57° Northeast 553 636 33,000  Level FlightAware
Sat 03:13:27 47.5480 -60.5200 57° Northeast 553 636 33,000  Level FlightAware
Sat 03:14:07 47.5960 -60.4120 57° Northeast 553 636 33,000  Level FlightAware
Sat 03:14:47 47.6430 -60.3040 57° Northeast 553 636 33,000  Level FlightAware
Sat 03:15:27 47.6900 -60.1960 57° Northeast 553 636 33,000  Level FlightAware
Sat 03:16:17 47.7500 -60.0600 57° Northeast 553 636 33,000  Level FlightAware
Sat 03:16:57 47.7970 -59.9520 57° Northeast 553 636 33,000  Level FlightAware
Sat 03:17:37 47.8440 -59.8430 57° Northeast 553 636 33,000  Level FlightAware
Sat 03:18:17 47.8920 -59.7340 57° Northeast 553 636 33,000  Level FlightAware
Sat 03:18:57 47.9390 -59.6250 57° Northeast 553 636 33,000  Level FlightAware
Sat 03:19:47 47.9980 -59.4890 57° Northeast 553 636 33,000  Level FlightAware
Sat 03:20:27 48.0460 -59.3800 57° Northeast 553 636 33,000  Level FlightAware
Sat 03:20:49 48.1667 -59.0000 57° Northeast 550 633 33,000 -136 Level Gander Center
Sat 03:21:11 48.2000 -58.9167 59° Northeast 550 633 32,900  Descending Moncton Center
Sat 03:21:36 48.2333 -58.8500 53° Northeast 550 633 33,000 100 Climbing Gander Center
Sat 03:22:11 48.2833 -58.7333 57° Northeast 550 633 33,000  Level Moncton Center
Sat 03:23:11 48.3667 -58.5167 60° Northeast 550 633 33,000 -71 Level Moncton Center
Sat 03:23:36 48.4000 -58.4333 59° Northeast 550 633 32,900  Descending Gander Center
Sat 03:24:11 48.4500 -58.3333 53° Northeast 550 633 33,000 63 Climbing Moncton Center
Sat 03:25:11 48.5167 -58.1167 65° Northeast 550 633 33,000  Level Moncton Center
Sat 03:26:11 48.6000 -57.9333 55° Northeast 550 633 33,000 -71 Level Moncton Center
Sat 03:26:36 48.6333 -57.8500 59° Northeast 550 633 32,900 -71 Descending Gander Center
Sat 03:27:36 48.7000 -57.6333 65° Northeast 550 633 32,900 63 Level Gander Center
Sat 03:28:11 48.7333 -57.5333 63° Northeast 550 633 33,000 63 Climbing Moncton Center
Sat 03:29:11 48.8167 -57.3167 60° Northeast 550 633 33,000 -16 Level Moncton Center
Sat 03:34:37 49.1800 -56.2510 60° Northeast 546 628 32,900  Descending FlightAware
Sat 03:35:22 49.2290 -56.1000 64° Northeast 547 629 33,000 75 Climbing FlightAware
Sat 03:35:57 49.2680 -55.9830 63° Northeast 546 628 33,000  Level FlightAware
Sat 03:36:57 49.3310 -55.7900 63° Northeast 546 628 33,000  Level FlightAware
Sat 03:37:37 49.3690 -55.6730 63° Northeast 546 628 33,000  Level FlightAware
Sat 03:38:27 49.4180 -55.5260 63° Northeast 546 628 33,000  Level FlightAware
Sat 03:39:07 49.4570 -55.4080 63° Northeast 546 628 33,000  Level FlightAware
Sat 03:39:47 49.5280 -55.1670 66° East 551 634 33,000  Level FlightAware
Sat 03:40:32 49.5780 -55.0070 64° Northeast 548 631 33,000  Level FlightAware
Sat 03:41:12 49.6130 -54.8940 64° Northeast 547 629 33,000  Level FlightAware
Sat 03:41:57 49.6690 -54.7140 64° Northeast 548 631 33,000  Level FlightAware
Sat 03:42:37 49.7130 -54.5710 65° Northeast 546 628 33,000  Level FlightAware
Sat 03:43:12 49.7480 -54.4560 65° Northeast 546 628 33,000  Level FlightAware
Sat 03:44:02 49.8040 -54.2720 65° Northeast 545 627 33,000  Level FlightAware
Sat 03:44:42 49.8470 -54.1290 65° Northeast 546 628 33,000  Level FlightAware
Sat 03:45:22 49.8890 -53.9900 65° Northeast 547 629 33,000  Level FlightAware
Sat 03:46:22 49.9540 -53.7710 65° Northeast 548 631 33,000  Level FlightAware
Sat 03:47:02 49.9970 -53.6260 65° Northeast 546 628 33,000  Level FlightAware
Sat 03:47:42 50.0370 -53.4880 66° East 546 628 33,000  Level FlightAware
Sat 03:48:27 50.0850 -53.3250 65° Northeast 546 628 33,000  Level FlightAware
Sat 03:49:02 50.1180 -53.2120 65° Northeast 546 628 33,000  Level FlightAware
Sat 03:50:07 50.1830 -52.9900 65° Northeast 546 628 33,000  Level FlightAware
Sat 03:50:47 50.2190 -52.8690 65° Northeast 546 628 33,000  Level FlightAware
Sat 03:51:27 50.2550 -52.7470 65° Northeast 546 628 33,000  Level FlightAware
Sat 03:52:07 50.2920 -52.6250 65° Northeast 546 628 33,000  Level FlightAware
Sat 03:52:47 50.3280 -52.5030 65° Northeast 546 628 33,000 -94 Level FlightAware
Sat 03:53:11 50.3833 -52.2000 65° Northeast 550 633 32,900  Descending Moncton Center
Sat 03:54:00 49.7167 -55.0000 66° East 564 649 33,000 81 Climbing ETMS Enhanced
Sat 03:54:25 49.7167 -55.0000 66° East 564 649 33,000  Level ETMS Enhanced
Sat 03:54:49 50.4833 -51.8500 66° East 540 621 33,000 -130 Level Gander Center
Sat 03:55:11 50.5000 -51.7833 69° East 550 633 32,900 -73 Descending Moncton Center
Sat 03:56:11 50.5667 -51.5500 66° East 550 633 32,900 50 Level Moncton Center
Sat 03:57:11 50.6333 -51.3167 66° East 550 633 33,000  Climbing Moncton Center
Sat 03:57:36 50.6500 -51.2333 72° East 540 621 32,900  Descending Gander Center
Sat 03:58:11 50.6667 -51.1167 77° East 550 633 33,000  Climbing Moncton Center
Sat 03:59:11 50.7500 -50.8833 60° Northeast 540 621 32,900 -50 Descending Moncton Center
Sat 04:00:11 50.7833 -50.6833 75° East 550 633 32,900  Level Moncton Center
Sat 04:01:11 50.8500 -50.4500 66° East 550 633 32,900 71 Level Moncton Center
Sat 04:01:36 50.8833 -50.3667 58° Northeast 550 633 33,000 71 Climbing Gander Center
Sat 04:02:36 50.9333 -50.1333 71° East 550 633 33,000  Level Gander Center
Sat 04:03:36 50.9833 -49.9167 70° East 550 633 33,000  Level Gander Center
Sat 04:04:00 51.0000 -50.0000 77° East 553 636 33,000 -100 Level ETMS Enhanced
Sat 04:04:36 51.0333 -49.6833 77° East 550 633 32,900  Descending Gander Center
Sat 04:06:00 51.0716 -49.4147 77° East  Level FlightAware
Sat 04:13:00 51.2854 -47.8171 77° East  Level FlightAware
Sat 04:14:00 51.3142 -47.5877 79° East  Level FlightAware
Sat 04:15:00 51.3425 -47.3580 79° East  Level FlightAware
Sat 04:16:00 51.3703 -47.1280 79° East  Level FlightAware
Sat 04:17:00 51.3978 -46.8977 79° East  Level FlightAware
Sat 04:18:00 51.4247 -46.6672 79° East  Level FlightAware
Sat 04:19:00 51.4512 -46.4364 79° East  Level FlightAware
Sat 04:20:00 51.4773 -46.2052 80° East  Level FlightAware
Sat 04:21:00 51.5029 -45.9739 80° East  Level FlightAware
Sat 04:22:00 51.5281 -45.7423 80° East  Level FlightAware
Sat 04:23:00 51.5528 -45.5104 80° East  Level FlightAware
Sat 04:24:00 51.5770 -45.2784 80° East  Level FlightAware
Sat 04:25:00 51.6008 -45.0460 81° East  Level FlightAware
Sat 04:26:00 51.6242 -44.8134 81° East  Level FlightAware
Sat 04:27:00 51.6470 -44.5806 81° East  Level FlightAware
Sat 04:28:00 51.6694 -44.3476 81° East  Level FlightAware
Sat 04:29:00 51.6914 -44.1143 81° East  Level FlightAware
Sat 04:30:00 51.7129 -43.8808 81° East  Level FlightAware
Sat 04:31:00 51.7339 -43.6471 82° East  Level FlightAware
Sat 04:32:00 51.7545 -43.4131 82° East  Level FlightAware
Sat 04:33:00 51.7746 -43.1790 82° East  Level FlightAware
Sat 04:34:00 51.7942 -42.9446 82° East  Level FlightAware
Sat 04:35:00 51.8134 -42.7101 82° East  Level FlightAware
Sat 04:36:00 51.8321 -42.4753 83° East  Level FlightAware
Sat 04:37:00 51.8503 -42.2404 83° East  Level FlightAware
Sat 04:38:00 51.8680 -42.0052 83° East  Level FlightAware
Sat 04:39:00 51.8853 -41.7699 83° East  Level FlightAware
Sat 04:40:00 51.9022 -41.5344 83° East  Level FlightAware
Sat 04:41:00 51.9185 -41.2988 83° East  Level FlightAware
Sat 04:42:00 51.9344 -41.0629 84° East  Level FlightAware
Sat 04:43:00 51.9498 -40.8269 84° East  Level FlightAware
Sat 04:44:00 51.9647 -40.5908 84° East  Level FlightAware
Sat 04:45:00 51.9792 -40.3544 84° East  Level FlightAware
Sat 04:46:00 51.9932 -40.1180 84° East  Level FlightAware
Sat 04:46:00 52.0000 -40.0000 77° East 554 638 33,000  Level ETMS Enhanced
Sat 04:47:00 52.0167 -39.8839 77° East  Level FlightAware
Sat 04:48:00 52.0495 -39.6522 77° East  Level FlightAware
Sat 04:49:00 52.0819 -39.4202 77° East  Level FlightAware
Sat 04:50:00 52.1139 -39.1878 77° East  Level FlightAware
Sat 04:51:00 52.1454 -38.9550 77° East  Level FlightAware
Sat 04:52:00 52.2669 -38.0392 78° East 554 638 33,000  Level FlightAware
Sat 04:53:00 52.2980 -37.7925 78° East 554 638 33,000  Level FlightAware
Sat 04:54:00 52.3285 -37.5454 79° East 554 638 33,000  Level FlightAware
Sat 04:55:00 52.3586 -37.2980 79° East 554 638 33,000  Level FlightAware
Sat 04:56:00 52.3881 -37.0503 79° East 554 638 33,000  Level FlightAware
Sat 04:57:00 52.4171 -36.8022 79° East 554 638 33,000  Level FlightAware
Sat 04:58:00 52.4455 -36.5538 79° East 554 638 33,000  Level FlightAware
Sat 04:59:00 52.4735 -36.3051 80° East 554 638 33,000  Level FlightAware
Sat 05:00:00 52.5009 -36.0561 80° East 554 638 33,000  Level FlightAware
Sat 05:01:00 52.5279 -35.8068 80° East 554 638 33,000  Level FlightAware
Sat 05:02:00 52.5542 -35.5572 80° East 554 638 33,000  Level FlightAware
Sat 05:03:00 52.5801 -35.3072 80° East 554 638 33,000  Level FlightAware
Sat 05:04:00 52.6054 -35.0570 81° East 554 638 33,000  Level FlightAware
Sat 05:05:00 52.6302 -34.8065 81° East 554 638 33,000  Level FlightAware
Sat 05:06:00 52.6545 -34.5557 81° East 554 638 33,000  Level FlightAware
Sat 05:07:00 52.6783 -34.3047 81° East 554 638 33,000  Level FlightAware
Sat 05:08:00 52.7015 -34.0533 81° East 554 638 33,000  Level FlightAware
Sat 05:09:00 52.7242 -33.8017 82° East 554 638 33,000  Level FlightAware
Sat 05:10:00 52.7463 -33.5499 82° East 554 638 33,000  Level FlightAware
Sat 05:11:00 52.7679 -33.2978 82° East 554 638 33,000  Level FlightAware
Sat 05:12:00 52.7890 -33.0454 82° East 554 638 33,000  Level FlightAware
Sat 05:13:00 52.8096 -32.7928 82° East 554 638 33,000  Level FlightAware
Sat 05:14:00 52.8296 -32.5400 83° East 554 638 33,000  Level FlightAware
Sat 05:15:00 52.8491 -32.2869 83° East 554 638 33,000  Level FlightAware
Sat 05:16:00 52.8680 -32.0336 83° East 554 638 33,000  Level FlightAware
Sat 05:17:00 52.8864 -31.7801 83° East 554 638 33,000  Level FlightAware
Sat 05:18:00 52.9043 -31.5264 83° East 554 638 33,000  Level FlightAware
Sat 05:19:00 52.9216 -31.2725 84° East 554 638 33,000  Level FlightAware
Sat 05:20:00 52.9383 -31.0184 84° East 554 638 33,000  Level FlightAware
Sat 05:21:00 52.9546 -30.7640 84° East 554 638 33,000  Level FlightAware
Sat 05:22:00 52.9703 -30.5096 84° East 554 638 33,000  Level FlightAware
Sat 05:23:00 52.9854 -30.2549 84° East 554 638 33,000  Level FlightAware
Sat 05:24:00 52.9993 -30.0129 84° East  Level FlightAware
Sat 05:25:00 53.0127 -29.7708 85° East  Level FlightAware
Sat 05:26:00 53.0079 -29.7832 86° East  Level FlightAware
Sat 05:26:00 53.0000 -30.0000 86° East 555 639 33,000  Level ETMS Enhanced
Sat 05:27:00 53.0162 -29.5404 87° East  Level FlightAware
Sat 05:28:00 53.0241 -29.2976 87° East  Level FlightAware
Sat 05:29:00 53.0314 -29.0546 87° East  Level FlightAware
Sat 05:30:00 53.0382 -28.8116 87° East  Level FlightAware
Sat 05:31:00 53.0446 -28.5685 87° East  Level FlightAware
Sat 05:32:00 53.0684 -27.9518 88° East 555 639 33,000  Level FlightAware
Sat 05:33:00 53.0745 -27.6954 88° East 555 639 33,000  Level FlightAware
Sat 05:34:00 53.0800 -27.4389 88° East 555 639 33,000  Level FlightAware
Sat 05:35:00 53.0850 -27.1824 88° East 555 639 33,000  Level FlightAware
Sat 05:36:00 53.0894 -26.9257 88° East 555 639 33,000  Level FlightAware
Sat 05:37:00 53.0933 -26.6691 89° East 555 639 33,000  Level FlightAware
Sat 05:38:00 53.0966 -26.4124 89° East 555 639 33,000  Level FlightAware
Sat 05:39:00 53.0993 -26.1556 89° East 555 639 33,000  Level FlightAware
Sat 05:40:00 53.1016 -25.8988 89° East 555 639 33,000  Level FlightAware
Sat 05:41:00 53.1032 -25.6420 89° East 555 639 33,000  Level FlightAware
Sat 05:42:00 53.1043 -25.3852 90° East 555 639 33,000  Level FlightAware
Sat 05:43:00 53.1049 -25.1284 90° East 555 639 33,000  Level FlightAware
Sat 05:44:00 53.1049 -24.8716 90° East 555 639 33,000  Level FlightAware
Sat 05:45:00 53.1043 -24.6148 90° East 555 639 33,000  Level FlightAware
Sat 05:46:00 53.1032 -24.3580 91° East 555 639 33,000  Level FlightAware
Sat 05:47:00 53.1016 -24.1012 91° East 555 639 33,000  Level FlightAware
Sat 05:48:00 53.0993 -23.8444 91° East 555 639 33,000  Level FlightAware
Sat 05:49:00 53.0966 -23.5876 91° East 555 639 33,000  Level FlightAware
Sat 05:50:00 53.0933 -23.3309 91° East 555 639 33,000  Level FlightAware
Sat 05:51:00 53.0894 -23.0743 92° East 555 639 33,000  Level FlightAware
Sat 05:52:00 53.0850 -22.8176 92° East 555 639 33,000  Level FlightAware
Sat 05:53:00 53.0800 -22.5611 92° East 555 639 33,000  Level FlightAware
Sat 05:54:00 53.0745 -22.3046 92° East 555 639 33,000  Level FlightAware
Sat 05:55:00 53.0684 -22.0482 92° East 555 639 33,000  Level FlightAware
Sat 05:56:00 53.0618 -21.7918 93° East 555 639 33,000  Level FlightAware
Sat 05:57:00 53.0546 -21.5355 93° East 555 639 33,000  Level FlightAware
Sat 05:58:00 53.0469 -21.2794 93° East 555 639 33,000  Level FlightAware
Sat 05:59:00 53.0386 -21.0233 93° East 555 639 33,000  Level FlightAware
Sat 06:00:00 53.0298 -20.7673 93° East 555 639 33,000  Level FlightAware
Sat 06:01:00 53.0204 -20.5114 94° East 555 639 33,000  Level FlightAware
Sat 06:02:00 53.0105 -20.2556 94° East 555 639 33,000 49 Level FlightAware
Sat 06:03:00 53.0005 -20.0131 94° East  Level FlightAware
Sat 06:04:00 52.9901 -19.7706 94° East  Level FlightAware
Sat 06:05:00 52.9548 -19.7967 110° East  Level FlightAware
Sat 06:06:00 52.9036 -19.5693 110° East  Level FlightAware
Sat 06:07:00 52.8521 -19.3424 111° Southeast  Level FlightAware
Sat 06:08:00 52.8001 -19.1161 111° Southeast  Level FlightAware
Sat 06:09:00 52.7477 -18.8903 111° Southeast  Level FlightAware
Sat 06:10:00 52.6948 -18.6651 111° Southeast  Level FlightAware
Sat 06:11:00 52.6415 -18.4404 111° Southeast  Level FlightAware
Sat 06:12:00 52.5878 -18.2163 111° Southeast  Level FlightAware
Sat 06:13:00 52.5337 -17.9927 112° Southeast  Level FlightAware
Sat 06:14:00 52.4791 -17.7697 112° Southeast  Level FlightAware
Sat 06:15:00 52.4242 -17.5472 112° Southeast  Level FlightAware
Sat 06:16:00 52.3686 -17.3254 112° Southeast  Level FlightAware
Sat 06:17:00 52.3125 -17.1043 112° Southeast  Level FlightAware
Sat 06:18:00 52.2559 -16.8837 113° Southeast  Level FlightAware
Sat 06:19:00 52.1990 -16.6637 113° Southeast  Level FlightAware
Sat 06:20:00 52.1416 -16.4443 113° Southeast  Level FlightAware
Sat 06:21:00 52.0838 -16.2254 113° Southeast  Level FlightAware
Sat 06:22:00 52.0256 -16.0071 113° Southeast  Level FlightAware
Sat 06:23:00 51.9671 -15.7894 114° Southeast  Level FlightAware
Sat 06:24:00 51.9081 -15.5722 114° Southeast  Level FlightAware
Sat 06:25:00 51.8487 -15.3556 114° Southeast  Level FlightAware
Sat 06:26:00 51.7889 -15.1396 114° Southeast  Level FlightAware
Sat 06:27:00 51.7283 -14.9245 115° Southeast  Level FlightAware
Sat 06:28:00 51.6664 -14.7107 115° Southeast  Level FlightAware
Sat 06:29:00 51.6041 -14.4974 115° Southeast  Level FlightAware
Sat 06:30:00 51.5414 -14.2847 115° Southeast  Level FlightAware
Sat 06:31:00 51.4784 -14.0726 115° Southeast  Level FlightAware
Sat 06:32:00 51.4162 -13.8601 115° Southeast  Level FlightAware
Sat 06:33:00 51.3540 -13.6479 115° Southeast  Level FlightAware
Sat 06:34:00 51.2914 -13.4363 115° Southeast  Level FlightAware
Sat 06:35:00 51.2284 -13.2253 115° Southeast  Level FlightAware
Sat 06:36:00 51.1650 -13.0149 116° Southeast  Level FlightAware
Sat 06:37:00 51.1013 -12.8050 116° Southeast  Level FlightAware
Sat 06:38:00 51.0372 -12.5958 116° Southeast  Level FlightAware
Sat 06:39:00 50.9729 -12.3869 116° Southeast  Level FlightAware
Sat 06:40:00 50.9083 -12.1786 116° Southeast  Level FlightAware
Sat 06:41:00 50.8433 -11.9709 116° Southeast  Level FlightAware
Sat 06:41:52 50.9190 -11.6590 116° Southeast 503 579 35,000  Level FlightAware
Sat 06:42:00 50.7779 -11.7638 116° Southeast  Level FlightAware
Sat 06:42:32 50.8720 -11.5310 120° Southeast 502 578 35,000  Level FlightAware
Sat 06:43:22 50.8170 -11.3810 120° Southeast 501 577 35,000  Level FlightAware
Sat 06:44:12 50.7680 -11.2470 120° Southeast 501 577 35,000  Level FlightAware
Sat 06:44:52 50.7070 -11.0850 121° Southeast 499 574 35,000  Level FlightAware
Sat 06:45:37 50.6580 -10.9560 121° Southeast 497 572 35,000  Level FlightAware
Sat 06:46:27 50.5990 -10.7970 120° Southeast 496 571 35,000  Level FlightAware
Sat 06:47:07 50.5600 -10.6910 120° Southeast 496 571 35,000  Level FlightAware
Sat 06:47:47 50.5210 -10.5850 120° Southeast 496 571 35,000  Level FlightAware
Sat 06:48:27 50.4560 -10.4200 122° Southeast 495 570 35,000  Level FlightAware
Sat 06:49:12 50.4110 -10.2990 120° Southeast 495 570 35,000  Level FlightAware
Sat 06:49:52 50.3720 -10.1930 120° Southeast 495 570 35,000  Level FlightAware
Sat 06:50:42 50.3230 -10.0610 120° Southeast 495 570 35,000  Level FlightAware
Sat 06:51:22 50.2500 -9.8890 124° Southeast 500 575 35,000  Level FlightAware
Sat 06:52:07 50.1930 -9.7440 122° Southeast 500 575 35,000  Level FlightAware
Sat 06:52:52 50.1390 -9.6060 121° Southeast 499 574 35,000 -71 Level FlightAware
Sat 06:53:32 50.0910 -9.4850 122° Southeast 497 572 34,900 -75 Descending FlightAware
Sat 06:54:12 50.0430 -9.3650 122° Southeast 495 570 34,900  Level FlightAware
Sat 06:54:57 49.9880 -9.2270 122° Southeast 493 567 34,900  Level FlightAware
Sat 06:55:32 49.9450 -9.1180 121° Southeast 492 566 34,900 -1,579 Level FlightAware
Sat 06:55:54 49.9061 -8.9874 121° Southeast 490 564 33,400 -2,250 Descending FlightAware
Sat 06:56:12 49.8844 -8.9338 122° Southeast 488 562 33,400 3,214 Level FlightAware
Sat 06:56:22 49.8870 -8.9760 122° Southeast 490 564 34,900  Climbing FlightAware
Sat 06:56:42 49.8483 -8.8446 122° Southeast 488 562 33,400 -2,368 Descending FlightAware
Sat 06:57:00 49.8268 -8.7911 122° Southeast 488 562 33,400 4,500 Level FlightAware
Sat 06:57:02 49.8390 -8.8560 122° Southeast 491 565 34,900  Climbing FlightAware
Sat 06:57:18 49.8052 -8.7377 122° Southeast 488 562 33,400 -2,647 Descending FlightAware
Sat 06:57:36 49.7834 -8.6844 122° Southeast 486 559 33,400 3,750 Level FlightAware
Sat 06:57:42 49.7910 -8.7370 122° Southeast 490 564 34,900  Climbing FlightAware
Sat 06:58:00 49.7543 -8.6136 122° Southeast 488 562 33,400 -2,500 Descending FlightAware
Sat 06:58:18 49.7325 -8.5605 122° Southeast 488 562 33,400 3,333 Level FlightAware
Sat 06:58:27 49.7350 -8.6000 122° Southeast 491 565 34,900  Climbing FlightAware
Sat 06:58:42 49.7034 -8.4897 122° Southeast 488 562 33,400 -2,727 Descending FlightAware
Sat 06:59:00 49.6815 -8.4366 122° Southeast 488 562 33,400 3,600 Level FlightAware
Sat 06:59:07 49.6860 -8.4810 122° Southeast 491 565 34,900  Climbing FlightAware
Sat 06:59:24 49.6523 -8.3660 122° Southeast 486 559 33,400 -2,571 Descending FlightAware
Sat 06:59:42 49.6304 -8.3131 123° Southeast 488 562 33,400 3,913 Level FlightAware
Sat 06:59:47 49.6380 -8.3650 123° Southeast 491 565 34,900  Climbing FlightAware
Sat 07:00:06 49.6012 -8.2425 123° Southeast 486 559 33,400 -2,432 Descending FlightAware
Sat 07:00:24 49.5792 -8.1897 123° Southeast 486 559 33,400 3,462 Level FlightAware
Sat 07:00:32 49.5840 -8.2350 123° Southeast 488 562 34,900  Climbing FlightAware
Sat 07:00:48 49.5499 -8.1192 123° Southeast 488 562 33,400 -2,647 Descending FlightAware
Sat 07:01:06 49.5279 -8.0663 123° Southeast 488 562 33,400 3,750 Level FlightAware
Sat 07:01:12 49.5380 -8.1240 123° Southeast 492 566 34,900  Climbing FlightAware
Sat 07:01:30 49.5034 -7.9906 123° Southeast 488 562 33,400 -2,143 Descending FlightAware
Sat 07:01:54 49.4870 -7.9094 107° East 488 562 33,400 3,333 Level FlightAware
Sat 07:01:57 49.4980 -7.9690 107° East 499 574 34,900  Climbing FlightAware
Sat 07:02:12 49.4780 -7.8469 107° East 490 564 33,400 -2,727 Descending FlightAware
Sat 07:02:30 49.4692 -7.7843 102° East 490 564 33,400 3,600 Level FlightAware
Sat 07:02:37 49.4790 -7.8290 102° East 501 577 34,900  Climbing FlightAware
Sat 07:02:54 49.4582 -7.7007 102° East 490 564 33,400 -2,571 Descending FlightAware
Sat 07:03:12 49.4501 -7.6378 101° East 488 562 33,400 3,913 Level FlightAware
Sat 07:03:17 49.4600 -7.6890 101° East 502 578 34,900  Climbing FlightAware
Sat 07:03:36 49.4394 -7.5538 101° East 488 562 33,400 -2,432 Descending FlightAware
Sat 07:03:54 49.4311 -7.4910 101° East 490 564 33,400 3,462 Level FlightAware
Sat 07:04:02 49.4390 -7.5290 101° East 500 575 34,900  Climbing FlightAware
Sat 07:04:18 49.4196 -7.4077 101° East 490 564 33,400 -2,647 Descending FlightAware
Sat 07:04:36 49.4108 -7.3452 102° East 490 564 33,400 3,750 Level FlightAware
Sat 07:04:42 49.4190 -7.3920 102° East 500 575 34,900  Climbing FlightAware
Sat 07:05:00 49.3990 -7.2621 102° East 488 562 33,400 -2,500 Descending FlightAware
Sat 07:05:18 49.3901 -7.1998 102° East 490 564 33,400 4,091 Level FlightAware
Sat 07:05:22 49.4000 -7.2550 102° East 499 574 34,900  Climbing FlightAware
Sat 07:05:42 49.3771 -7.1171 102° East 488 562 33,400 -2,368 Descending FlightAware
Sat 07:06:00 49.3593 -7.0597 115° Southeast 488 562 33,400 3,600 Level FlightAware
Sat 07:06:07 49.3650 -7.1040 115° Southeast 496 571 34,900  Climbing FlightAware
Sat 07:06:24 49.3335 -6.9850 115° Southeast 490 564 33,400 -2,571 Descending FlightAware
Sat 07:06:42 49.3113 -6.9302 122° Southeast 490 564 33,400 3,913 Level FlightAware
Sat 07:06:47 49.3190 -6.9780 122° Southeast 500 575 34,900  Climbing FlightAware
Sat 07:07:12 49.2759 -6.8395 122° Southeast 490 564 33,400 -2,093 Descending FlightAware
Sat 07:07:30 49.2544 -6.7854 121° Southeast 490 564 33,400 4,500 Level FlightAware
Sat 07:07:32 49.2640 -6.8390 121° Southeast 498 573 34,900  Climbing FlightAware
Sat 07:07:48 49.2330 -6.7318 121° Southeast 488 562 33,400 -2,647 Descending FlightAware
Sat 07:08:06 49.2115 -6.6780 121° Southeast 490 564 33,400 4,737 Level FlightAware
Sat 07:08:07 49.2230 -6.7360 121° Southeast 498 573 34,900  Climbing FlightAware
Sat 07:08:24 49.1899 -6.6240 121° Southeast 490 564 33,400 -2,571 Descending FlightAware
Sat 07:08:42 49.1684 -6.5700 121° Southeast 490 564 33,400  Level FlightAware
Sat 07:09:00 49.1469 -6.5164 122° Southeast 490 564 33,400 3,600 Level FlightAware
Sat 07:09:07 49.1510 -6.5550 122° Southeast 497 572 34,900  Climbing FlightAware
Sat 07:09:24 49.1180 -6.4448 122° Southeast 490 564 33,400 -2,571 Descending FlightAware
Sat 07:09:42 49.0965 -6.3912 122° Southeast 488 562 33,400  Level FlightAware
Sat 07:10:00 49.0750 -6.3375 121° Southeast 488 562 33,400 2,571 Level FlightAware
Sat 07:10:17 49.0700 -6.3530 122° Southeast 496 571 34,900  Climbing FlightAware
Sat 07:10:18 49.0534 -6.2841 122° Southeast 488 562 33,400 -4,737 Descending FlightAware
Sat 07:10:36 49.0318 -6.2307 122° Southeast 488 562 33,400  Level FlightAware
Sat 07:10:54 49.0102 -6.1772 122° Southeast 490 564 33,400 3,462 Level FlightAware
Sat 07:11:02 49.0140 -6.2130 122° Southeast 497 572 34,900  Climbing FlightAware
Sat 07:11:18 48.9814 -6.1060 122° Southeast 488 562 33,400 -2,647 Descending FlightAware
Sat 07:11:36 48.9596 -6.0526 122° Southeast 488 562 33,400 3,750 Level FlightAware
Sat 07:11:42 48.9650 -6.0910 122° Southeast 497 572 34,900  Climbing FlightAware
Sat 07:12:00 48.9306 -5.9816 122° Southeast 486 559 33,400 -2,500 Descending FlightAware
Sat 07:12:18 48.9087 -5.9285 122° Southeast 488 562 33,400 4,091 Level FlightAware
Sat 07:12:22 48.9160 -5.9720 122° Southeast 497 572 34,900  Climbing FlightAware
Sat 07:12:42 48.8797 -5.8576 122° Southeast 486 559 33,400 -2,368 Descending FlightAware
Sat 07:13:00 48.8576 -5.8039 122° Southeast 486 559 33,400 3,600 Level FlightAware
Sat 07:13:07 48.8630 -5.8420 122° Southeast 498 573 34,900  Climbing FlightAware
Sat 07:13:24 48.8285 -5.7330 122° Southeast 486 559 33,400 -2,571 Descending FlightAware
Sat 07:13:42 48.8067 -5.6797 122° Southeast 486 559 33,400 3,913 Level FlightAware
Sat 07:13:47 48.8140 -5.7220 122° Southeast 499 574 34,900  Climbing FlightAware
Sat 07:14:06 48.7774 -5.6088 122° Southeast 484 557 33,400 -2,432 Descending FlightAware
Sat 07:14:24 48.7553 -5.5557 122° Southeast 486 559 33,400 3,462 Level FlightAware
Sat 07:14:32 48.7590 -5.5890 122° Southeast 501 577 34,900  Climbing FlightAware
Sat 07:14:54 48.7184 -5.4669 122° Southeast 486 559 33,400 -2,250 Descending FlightAware
Sat 07:15:12 48.6962 -5.4136 122° Southeast 486 559 33,400 5,000 Level FlightAware
Sat 07:15:12 48.7100 -5.4690 122° Southeast 501 577 34,900  Climbing FlightAware
Sat 07:15:30 48.6740 -5.3603 122° Southeast 488 562 33,400  Descending FlightAware
Sat 07:15:52 48.6620 -5.3550 122° Southeast 503 579 34,900  Climbing FlightAware
Sat 07:16:12 48.6222 -5.2360 122° Southeast 488 562 33,400 -2,368 Descending FlightAware
Sat 07:16:30 48.5998 -5.1828 122° Southeast 486 559 33,400 3,600 Level FlightAware
Sat 07:16:37 48.6060 -5.2210 122° Southeast 503 579 34,900  Climbing FlightAware
Sat 07:16:54 48.5700 -5.1120 122° Southeast 484 557 33,400  Descending FlightAware
Sat 07:17:12 48.5630 -5.1180 122° Southeast 504 580 34,900  Climbing FlightAware
Sat 07:17:36 48.5173 -4.9879 122° Southeast 484 557 33,400 -1,875 Descending FlightAware
Sat 07:18:00 48.4871 -4.9167 123° Southeast 486 559 33,400 1,364 Level FlightAware
Sat 07:18:42 48.4520 -4.8540 123° Southeast 508 585 34,900 1,098 Climbing FlightAware
Sat 07:19:22 48.4000 -4.7330 123° Southeast 507 583 34,900 -1,250 Level FlightAware
Sat 07:19:54 48.3416 -4.5783 123° Southeast 490 564 33,400  Descending FlightAware
Sat 07:20:07 48.3410 -4.5970 123° Southeast 502 578 34,900  Climbing FlightAware
Sat 07:20:42 48.2792 -4.4380 123° Southeast 490 564 33,400  Descending FlightAware
Sat 07:20:47 48.2890 -4.4780 123° Southeast 500 575 34,900  Climbing FlightAware
Sat 07:21:12 48.2403 -4.3508 123° Southeast 490 564 33,400  Descending FlightAware
Sat 07:21:27 48.2380 -4.3640 123° Southeast 500 575 34,900 1,500 Climbing FlightAware
Sat 07:22:12 48.1810 -4.2380 124° Southeast 500 575 34,900  Level FlightAware
Sat 07:22:52 48.1290 -4.1200 123° Southeast 500 575 34,900  Level FlightAware
Sat 07:23:37 48.0680 -3.9880 125° Southeast 500 575 34,900  Level FlightAware
Sat 07:24:17 48.0150 -3.8710 124° Southeast 500 575 34,900  Level FlightAware
Sat 07:24:57 47.9630 -3.7580 124° Southeast 503 579 34,900  Level FlightAware
Sat 07:25:42 47.9070 -3.6270 122° Southeast 503 579 34,900  Level FlightAware
Sat 07:26:22 47.8560 -3.5100 123° Southeast 505 581 34,900  Level FlightAware
Sat 07:27:07 47.7980 -3.3800 124° Southeast 502 578 34,900  Level FlightAware
Sat 07:27:47 47.7450 -3.2620 124° Southeast 502 578 34,900  Level FlightAware
Sat 07:28:32 47.6850 -3.1270 123° Southeast 506 582 34,900  Level FlightAware
Sat 07:29:12 47.6330 -3.0110 124° Southeast 507 583 34,900  Level FlightAware
Sat 07:29:52 47.5810 -2.8950 124° Southeast 507 583 34,900  Level FlightAware
Sat 07:30:32 47.5300 -2.7840 124° Southeast 508 585 34,900  Level FlightAware
Sat 07:31:17 47.4750 -2.6620 124° Southeast 508 585 34,900  Level FlightAware
Sat 07:32:02 47.4130 -2.5250 124° Southeast 507 583 34,900  Level FlightAware
Sat 07:32:42 47.3640 -2.4190 124° Southeast 507 583 34,900  Level FlightAware
Sat 07:33:22 47.3100 -2.3020 124° Southeast 507 583 34,900  Level FlightAware
Sat 07:34:07 47.2470 -2.1660 124° Southeast 508 585 34,900  Level FlightAware
Sat 07:34:47 47.1940 -2.0510 124° Southeast 510 587 34,900  Level FlightAware
Sat 07:35:32 47.1340 -1.9230 125° Southeast 511 588 34,900  Level FlightAware
Sat 07:36:12 47.0800 -1.8080 125° Southeast 513 590 34,900  Level FlightAware
Sat 07:36:52 47.0250 -1.6920 125° Southeast 515 593 34,900  Level FlightAware
Sat 07:37:37 46.9660 -1.5660 124° Southeast 517 595 34,900  Level FlightAware
Sat 07:38:17 46.9100 -1.4490 125° Southeast 519 597 34,900  Level FlightAware
Sat 07:39:02 46.8470 -1.3170 125° Southeast 523 602 34,900  Level FlightAware
Sat 07:39:42 46.7920 -1.2020 125° Southeast 527 606 34,900  Level FlightAware
Sat 07:40:22 46.7360 -1.0850 125° Southeast 527 606 34,900  Level FlightAware
Sat 07:41:07 46.6740 -0.9590 126° Southeast 525 604 34,900  Level FlightAware
Sat 07:42:02 46.6000 -0.8060 125° Southeast 524 603 34,900  Level FlightAware
Sat 07:42:42 46.5530 -0.7080 125° Southeast 524 603 34,900  Level FlightAware
Sat 07:43:22 46.5060 -0.6100 125° Southeast 524 603 34,900  Level FlightAware
Sat 07:44:07 46.4580 -0.4200 110° East 500 575 34,900  Level FlightAware
Sat 07:45:02 46.4410 -0.3500 109° East 500 575 34,900  Level FlightAware
Sat 07:45:42 46.3840 -0.1340 111° Southeast 500 575 34,900  Level FlightAware
Sat 07:46:42 46.4410 -0.3500 291° West 500 575 34,900  Level FlightAware
Sat 07:47:22 46.4140 -0.2430 110° East 500 575 34,900  Level FlightAware
Sat 07:48:02 46.3870 -0.1360 110° East 500 575 34,900  Level FlightAware
Sat 07:48:52 46.3530 -0.0020 110° East 500 575 34,900  Level FlightAware
Sat 07:49:32 46.3260 0.1050 110° East 500 575 34,900  Level FlightAware
Sat 07:50:12 46.2990 0.2120 110° East 500 575 34,900  Level FlightAware
Sat 07:50:52 46.2720 0.3190 110° East 500 575 34,900  Level FlightAware
Sat 07:51:32 46.2450 0.4260 110° East 500 575 34,900  Level FlightAware
Sat 07:52:22 46.2120 0.5590 110° East 500 575 34,900  Level FlightAware
Sat 07:53:02 46.1850 0.6660 110° East 500 575 34,900  Level FlightAware
Sat 07:53:42 46.1580 0.7730 110° East 500 575 34,900  Level FlightAware
Sat 07:54:22 46.1310 0.8790 110° East 500 575 34,900  Level FlightAware
Sat 07:55:02 45.9160 1.5990 113° Southeast 493 567 34,900  Level FlightAware
Sat 07:55:52 45.8740 1.7520 111° Southeast 493 567 34,900  Level FlightAware
Sat 07:56:32 45.8410 1.8760 111° Southeast 494 568 34,900 75 Level FlightAware
Sat 07:57:12 45.8090 1.9950 111° Southeast 494 568 35,000 565 Climbing FlightAware
Sat 07:57:57 45.7710 2.1360 111° Southeast 497 572 35,700 918 Climbing FlightAware
Sat 07:58:37 45.7370 2.2630 111° Southeast 501 577 36,300 847 Climbing FlightAware
Sat 07:59:22 45.7010 2.3960 111° Southeast 503 579 36,900 424 Climbing FlightAware
Sat 08:00:02 45.6680 2.5240 110° East 503 579 36,900  Level FlightAware
Sat 08:00:42 45.6350 2.6460 111° Southeast 503 579 36,900 67 Level FlightAware
Sat 08:01:32 45.5970 2.7920 110° East 502 578 37,000 60 Climbing FlightAware
Sat 08:02:22 45.5630 2.9240 110° East 502 578 37,000 -67 Level FlightAware
Sat 08:03:02 45.5240 3.0690 111° Southeast 500 575 36,900 -71 Descending FlightAware
Sat 08:03:47 45.4870 3.2060 111° Southeast 496 571 36,900  Level FlightAware
Sat 08:04:27 45.4560 3.3300 110° East 496 571 36,900  Level FlightAware
Sat 08:05:12 45.4200 3.4690 110° East 496 571 36,900  Level FlightAware
Sat 08:05:52 45.3890 3.5870 110° East 495 570 36,900  Level FlightAware
Sat 08:06:32 45.3550 3.7180 110° East 497 572 36,900  Level FlightAware
Sat 08:07:17 45.3190 3.8600 110° East 495 570 36,900  Level FlightAware
Sat 08:07:57 45.2760 3.9790 117° Southeast 495 570 36,900  Level FlightAware
Sat 08:08:37 45.2250 4.0840 125° Southeast 494 568 36,900  Level FlightAware
Sat 08:09:22 45.1640 4.2070 125° Southeast 494 568 36,900  Level FlightAware
Sat 08:10:02 45.1110 4.3130 125° Southeast 493 567 36,900  Level FlightAware
Sat 08:10:47 45.0530 4.4280 125° Southeast 491 565 36,900  Level FlightAware
Sat 08:11:27 45.0010 4.5320 125° Southeast 490 564 36,900  Level FlightAware
Sat 08:12:07 44.9480 4.6370 125° Southeast 490 564 36,900  Level FlightAware
Sat 08:12:52 44.8870 4.7580 125° Southeast 489 563 36,900  Level FlightAware
Sat 08:13:32 44.8360 4.8570 126° Southeast 489 563 36,900  Level FlightAware
Sat 08:14:17 44.7770 4.9740 125° Southeast 491 565 36,900  Level FlightAware
Sat 08:14:57 44.7210 5.0830 126° Southeast 491 565 36,900  Level FlightAware
Sat 08:15:37 44.6720 5.1820 125° Southeast 490 564 36,900 80 Level FlightAware
Sat 08:16:12 44.6300 5.2720 123° Southeast 489 563 37,000  Climbing FlightAware
Sat 08:17:17 44.5570 5.4330 122° Southeast 489 563 36,900 -60 Descending FlightAware
Sat 08:17:52 44.5160 5.5220 123° Southeast 489 563 36,900 71 Level FlightAware
Sat 08:18:42 44.4510 5.6670 122° Southeast 485 558 37,000  Climbing FlightAware
Sat 08:19:22 44.3990 5.7790 123° Southeast 486 559 36,900 -75 Descending FlightAware
Sat 08:20:02 44.3510 5.8830 123° Southeast 488 562 36,900  Level FlightAware
Sat 08:20:47 44.2930 6.0070 123° Southeast 488 562 36,900  Level FlightAware
Sat 08:21:27 44.2450 6.1100 123° Southeast 488 562 36,900  Level FlightAware
Sat 08:22:12 44.1900 6.2280 123° Southeast 488 562 36,900  Level FlightAware
Sat 08:22:52 44.1390 6.3350 124° Southeast 489 563 36,900  Level FlightAware
Sat 08:23:37 44.0870 6.4450 123° Southeast 494 568 36,900 71 Level FlightAware
Sat 08:24:17 44.0320 6.5620 123° Southeast 495 570 37,000 75 Climbing FlightAware
Sat 08:24:57 43.9840 6.6620 124° Southeast 496 571 37,000 -71 Level FlightAware
Sat 08:25:42 43.9240 6.7880 123° Southeast 499 574 36,900 -71 Descending FlightAware
Sat 08:26:22 43.8730 6.8940 124° Southeast 501 577 36,900  Level FlightAware
Sat 08:27:07 43.8160 7.0130 124° Southeast 503 579 36,900  Level FlightAware
Sat 08:27:47 43.7670 7.1140 124° Southeast 505 581 36,900 80 Level FlightAware
Sat 08:28:22 43.7180 7.2150 124° Southeast 507 583 37,000 71 Climbing FlightAware
Sat 08:29:12 43.6510 7.3530 124° Southeast 511 588 37,000 -67 Level FlightAware
Sat 08:29:52 43.6000 7.4570 124° Southeast 512 589 36,900 -71 Descending FlightAware
Sat 08:30:37 43.5410 7.5780 124° Southeast 511 588 36,900  Level FlightAware
Sat 08:31:17 43.4910 7.6780 125° Southeast 511 588 36,900  Level FlightAware
Sat 08:31:57 43.4320 7.7970 124° Southeast 510 587 36,900  Level FlightAware
Sat 08:32:42 43.3750 7.9130 124° Southeast 505 581 36,900  Level FlightAware
Sat 08:33:22 43.3210 8.0210 124° Southeast 502 578 36,900 63 Level FlightAware
Sat 08:34:17 43.2460 8.1710 124° Southeast 501 577 37,000 60 Climbing FlightAware
Sat 08:35:02 43.1850 8.2920 125° Southeast 500 575 37,000 -67 Level FlightAware
Sat 08:35:47 43.1270 8.4070 125° Southeast 500 575 36,900 -71 Descending FlightAware
Sat 08:36:27 43.0760 8.5080 125° Southeast 500 575 36,900  Level FlightAware
Sat 08:37:07 43.0230 8.6110 125° Southeast 500 575 36,900  Level FlightAware
Sat 08:37:52 42.9620 8.7310 125° Southeast 500 575 36,900 71 Level FlightAware
Sat 08:38:32 42.9090 8.8350 125° Southeast 501 577 37,000 71 Climbing FlightAware
Sat 08:39:17 42.8510 8.9480 125° Southeast 503 579 37,000 -71 Level FlightAware
Sat 08:39:57 42.7970 9.0540 125° Southeast 505 581 36,900 -75 Descending FlightAware
Sat 08:40:37 42.7440 9.1590 124° Southeast 508 585 36,900  Level FlightAware
Sat 08:41:22 42.6960 9.2890 117° Southeast 502 578 36,900  Level FlightAware
Sat 08:41:57 42.6660 9.3910 112° Southeast 502 578 36,900  Level FlightAware
Sat 08:42:47 42.6230 9.5390 112° Southeast 507 583 36,900  Level FlightAware
Sat 08:43:27 42.5890 9.6550 112° Southeast 507 583 36,900  Level FlightAware
Sat 08:44:07 42.5560 9.7650 112° Southeast 502 578 36,900 71 Level FlightAware
Sat 08:44:52 42.5150 9.9060 111° Southeast 499 574 37,000  Climbing FlightAware
Sat 08:45:32 42.4820 10.0160 112° Southeast 499 574 36,900 -75 Descending FlightAware
Sat 08:46:12 42.4450 10.1380 112° Southeast 496 571 36,900  Level FlightAware
Sat 08:46:57 42.4070 10.2650 112° Southeast 496 571 36,900  Level FlightAware
Sat 08:47:37 42.3720 10.3820 112° Southeast 496 571 36,900 75 Level FlightAware
Sat 08:48:17 42.3390 10.4920 112° Southeast 496 571 37,000  Climbing FlightAware
Sat 08:49:02 42.2990 10.6240 112° Southeast 497 572 36,900 -71 Descending FlightAware
Sat 08:49:42 42.2630 10.7400 113° Southeast 497 572 36,900  Level FlightAware
Sat 08:50:27 42.2230 10.8640 114° Southeast 492 566 36,900  Level FlightAware
Sat 08:51:07 42.1650 10.9590 129° Southeast 484 557 36,900  Level FlightAware
Sat 08:51:47 42.1080 11.0520 130° Southeast 486 559 36,900  Level FlightAware
Sat 08:52:22 42.0600 11.1360 128° Southeast 487 560 36,900  Level FlightAware
Sat 08:53:27 41.9750 11.2870 127° Southeast 488 562 36,900  Level FlightAware
Sat 08:54:07 41.9170 11.3810 130° Southeast 486 559 36,900  Level FlightAware
Sat 08:55:02 41.8390 11.5080 129° Southeast 486 559 36,900  Level FlightAware
Sat 08:55:47 41.7740 11.6130 130° Southeast 486 559 36,900 71 Level FlightAware
Sat 08:56:27 41.7170 11.7050 130° Southeast 486 559 37,000  Climbing FlightAware
Sat 08:57:07 41.6600 11.7980 129° Southeast 482 555 36,900  Descending FlightAware
Sat 08:57:52 41.5950 11.9010 130° Southeast 484 557 37,000  Climbing FlightAware
Sat 08:58:32 41.5350 11.9980 130° Southeast 488 562 36,900 -71 Descending FlightAware
Sat 08:59:17 41.4700 12.1020 130° Southeast 489 563 36,900  Level FlightAware
Sat 08:59:57 41.4150 12.1890 130° Southeast 490 564 36,900  Level FlightAware
Sat 09:00:42 41.3450 12.3000 130° Southeast 496 571 36,900  Level FlightAware
Sat 09:01:22 41.2830 12.3970 130° Southeast 498 573 36,900  Level FlightAware
Sat 09:02:07 41.2210 12.4950 130° Southeast 498 573 36,900  Level FlightAware
Sat 09:02:52 41.1700 12.5760 130° Southeast 497 572 36,900  Level FlightAware
Sat 09:03:37 41.0990 12.7160 124° Southeast 499 574 36,900  Level FlightAware
Sat 09:04:22 41.0410 12.8480 120° Southeast 500 575 36,900  Level FlightAware
Sat 09:05:02 40.9980 12.9460 120° Southeast 506 582 36,900  Level FlightAware
Sat 09:05:47 40.9400 13.0750 121° Southeast 507 583 36,900 75 Level FlightAware
Sat 09:06:22 40.9020 13.1600 121° Southeast 507 583 37,000  Climbing FlightAware
Sat 09:07:12 40.8390 13.3010 121° Southeast 507 583 36,900 -63 Descending FlightAware
Sat 09:07:57 40.7850 13.4200 121° Southeast 507 583 36,900  Level FlightAware
Sat 09:08:37 40.7370 13.5250 121° Southeast 507 583 36,900  Level FlightAware
Sat 09:09:22 40.6810 13.6500 121° Southeast 507 583 36,900  Level FlightAware
Sat 09:10:02 40.6330 13.7550 121° Southeast 509 586 36,900  Level FlightAware
Sat 09:10:42 40.5840 13.8620 121° Southeast 509 586 36,900  Level FlightAware
Sat 09:11:27 40.5310 13.9770 121° Southeast 510 587 36,900 71 Level FlightAware
Sat 09:12:07 40.4820 14.0840 121° Southeast 511 588 37,000  Climbing FlightAware
Sat 09:12:47 40.4330 14.1900 121° Southeast 513 590 36,900 -71 Descending FlightAware
Sat 09:13:32 40.3760 14.3130 121° Southeast 515 593 36,900  Level FlightAware
Sat 09:14:12 40.3260 14.4190 122° Southeast 516 594 36,900  Level FlightAware
Sat 09:14:57 40.2710 14.5380 121° Southeast 517 595 36,900  Level FlightAware
Sat 09:15:37 40.2210 14.6440 122° Southeast 517 595 36,900  Level FlightAware
Sat 09:16:22 40.1640 14.7660 121° Southeast 518 596 36,900 71 Level FlightAware
Sat 09:17:02 40.1130 14.8720 122° Southeast 520 598 37,000  Climbing FlightAware
Sat 09:17:42 40.0610 14.9810 122° Southeast 521 600 36,900 -71 Descending FlightAware
Sat 09:18:27 40.0060 15.0980 122° Southeast 521 600 36,900  Level FlightAware
Sat 09:19:07 39.9540 15.2050 122° Southeast 521 600 36,900  Level FlightAware
Sat 09:19:52 39.8960 15.3260 122° Southeast 523 602 36,900  Level FlightAware
Sat 09:20:32 39.8450 15.4340 122° Southeast 525 604 36,900  Level FlightAware
Sat 09:21:12 39.7930 15.5410 122° Southeast 526 605 36,900  Level FlightAware
Sat 09:21:57 39.7370 15.6590 122° Southeast 530 610 36,900  Level FlightAware
Sat 09:22:37 39.6940 15.7730 116° Southeast 532 612 36,900  Level FlightAware
Sat 09:23:17 39.6540 15.8910 114° Southeast 533 613 36,900  Level FlightAware
Sat 09:24:02 39.6080 16.0260 114° Southeast 533 613 36,900  Level FlightAware
Sat 09:24:42 39.5680 16.1430 114° Southeast 534 615 36,900  Level FlightAware
Sat 09:25:27 39.5250 16.2700 114° Southeast 534 615 36,900  Level FlightAware
Sat 09:26:07 39.4850 16.3870 114° Southeast 534 615 36,900  Level FlightAware
Sat 09:26:47 39.4440 16.5060 114° Southeast 533 613 36,900  Level FlightAware
Sat 09:27:32 39.3990 16.6380 114° Southeast 531 611 36,900  Level FlightAware
Sat 09:28:12 39.3600 16.7530 114° Southeast 530 610 36,900  Level FlightAware
Sat 09:28:57 39.3150 16.8830 114° Southeast 530 610 36,900  Level FlightAware
Sat 09:29:27 39.2870 16.9620 115° Southeast 530 610 36,900  Level FlightAware
Sat 09:30:52 39.2170 17.1630 114° Southeast 531 611 36,900  Level FlightAware
Sat 09:31:57 39.1490 17.3560 114° Southeast 533 613 36,900  Level FlightAware
Sat 09:32:37 39.1080 17.4730 114° Southeast 533 613 36,900  Level FlightAware
Sat 09:33:22 39.0660 17.5910 115° Southeast 533 613 36,900  Level FlightAware
Sat 09:34:02 39.0230 17.7120 115° Southeast 534 615 36,900  Level FlightAware
Sat 09:34:37 38.9840 17.8210 115° Southeast 535 616 36,900  Level FlightAware
Sat 09:35:22 38.9360 17.9540 115° Southeast 535 616 36,900  Level FlightAware
Sat 09:36:22 38.8790 18.1120 115° Southeast 534 615 36,900  Level FlightAware
Sat 09:37:02 38.8370 18.2280 115° Southeast 534 615 36,900  Level FlightAware
Sat 09:37:47 38.7840 18.3730 115° Southeast 534 615 36,900  Level FlightAware
Sat 09:38:27 38.7430 18.4840 115° Southeast 535 616 36,900  Level FlightAware
Sat 09:39:07 38.6960 18.6100 116° Southeast 537 618 36,900  Level FlightAware
Sat 09:39:52 38.6530 18.7270 115° Southeast 536 617 36,900  Level FlightAware
Sat 09:40:47 38.5940 18.8870 115° Southeast 536 617 36,900  Level FlightAware
Sat 09:41:27 38.5580 18.9840 115° Southeast 536 617 36,900  Level FlightAware
Sat 09:42:07 38.5230 19.0820 115° Southeast 536 617 36,900  Level FlightAware
Sat 09:42:57 38.4780 19.2040 115° Southeast 536 617 36,900  Level FlightAware
Sat 09:43:37 38.4420 19.3020 115° Southeast 536 617 36,900  Level FlightAware
Sat 09:44:12 38.4200 19.5030 98° East 537 618 36,900  Level FlightAware
Sat 09:44:52 38.3890 19.6180 109° East 538 619 36,900  Level FlightAware
Sat 09:45:37 38.3530 19.7500 109° East 538 619 36,900  Level FlightAware
Sat 09:46:17 38.3190 19.8740 109° East 538 619 36,900  Level FlightAware
Sat 09:47:07 38.2730 20.0430 109° East 539 620 36,900  Level FlightAware
Sat 09:48:02 38.2250 20.2170 109° East 539 620 36,900  Level FlightAware
Sat 09:48:42 38.1870 20.3500 110° East 542 624 36,900  Level FlightAware
Sat 09:49:27 38.1520 20.4710 110° East 543 625 36,900  Level FlightAware
Sat 09:50:07 38.1070 20.5960 115° Southeast 543 625 36,900  Level FlightAware
Sat 09:50:47 38.0640 20.7100 116° Southeast 542 624 36,900  Level FlightAware
Sat 09:51:32 38.0170 20.8320 116° Southeast 36,900  Level FlightAware
Sat 09:52:12 37.9690 20.9580 116° Southeast 542 624 36,900  Level FlightAware
Sat 09:52:57 37.9260 21.0740 115° Southeast 542 624 36,900  Level FlightAware
Sat 09:53:37 37.8770 21.1950 117° Southeast 544 626 36,900  Level FlightAware
Sat 09:54:22 37.8280 21.3220 116° Southeast 544 626 36,900  Level FlightAware
Sat 09:55:02 37.7870 21.4270 116° Southeast 545 627 36,900  Level FlightAware
Sat 09:55:42 37.7440 21.5380 116° Southeast 545 627 36,900  Level FlightAware
Sat 09:56:52 37.6710 21.7230 116° Southeast 542 624 36,900  Level FlightAware
Sat 09:57:32 37.6150 21.8630 117° Southeast 542 624 36,900  Level FlightAware
Sat 09:58:17 37.5720 21.9740 116° Southeast 542 624 36,900  Level FlightAware
Sat 09:58:57 37.5210 22.1000 117° Southeast 541 623 36,900  Level FlightAware
Sat 09:59:42 37.4670 22.2350 117° Southeast 541 623 36,900  Level FlightAware
Sat 10:00:22 37.4190 22.3400 120° Southeast 542 624 36,900  Level FlightAware
Sat 10:01:32 37.3550 22.4600 124° Southeast 542 624 36,900  Level FlightAware
Sat 10:02:17 37.2480 22.6380 127° Southeast 544 626 36,900  Level FlightAware
Sat 10:03:02 37.1910 22.7360 126° Southeast 545 627 36,900  Level FlightAware
Sat 10:03:42 37.1220 22.8530 126° Southeast 545 627 36,900  Level FlightAware
Sat 10:04:27 37.0540 22.9690 126° Southeast 545 627 36,900  Level FlightAware
Sat 10:05:07 36.9940 23.0720 126° Southeast 545 627 36,900  Level FlightAware
Sat 10:05:47 36.9340 23.1720 127° Southeast 545 627 36,900  Level FlightAware
Sat 10:06:32 36.8800 23.2630 127° Southeast 545 627 36,900  Level FlightAware
Sat 10:07:02 36.8230 23.3600 126° Southeast 544 626 36,900  Level FlightAware
Sat 10:08:07 36.7640 23.4600 126° Southeast 544 626 36,900  Level FlightAware
Sat 10:08:52 36.6560 23.6380 127° Southeast 543 625 36,900  Level FlightAware
Sat 10:09:32 36.6030 23.7270 127° Southeast 545 627 36,900  Level FlightAware
Sat 10:10:12 36.5440 23.8270 126° Southeast 545 627 36,900  Level FlightAware
Sat 10:10:57 36.4700 23.9480 127° Southeast 547 629 36,900  Level FlightAware
Sat 10:11:37 36.4150 24.0400 127° Southeast 547 629 36,900  Level FlightAware
Sat 10:12:17 36.3460 24.1520 127° Southeast 548 631 36,900  Level FlightAware
Sat 10:12:57 36.2950 24.2380 126° Southeast 548 631 36,900  Level FlightAware
Sat 10:13:47 36.2170 24.3630 128° Southeast 549 632 36,900  Level FlightAware
Sat 10:14:27 36.1480 24.4750 127° Southeast 549 632 36,900  Level FlightAware
Sat 10:15:07 36.0850 24.5770 127° Southeast 549 632 36,900  Level FlightAware
Sat 10:15:52 36.0260 24.6750 127° Southeast 549 632 36,900  Level FlightAware
Sat 10:16:32 35.9740 24.7600 127° Southeast 549 632 36,900  Level FlightAware
Sat 10:17:17 35.8840 24.9030 128° Southeast 550 633 36,900  Level FlightAware
Sat 10:17:57 35.8210 25.0030 128° Southeast 551 634 36,900  Level FlightAware
Sat 10:18:37 35.7620 25.0980 127° Southeast 552 635 36,900  Level FlightAware
Sat 10:19:22 35.6910 25.2110 128° Southeast 553 636 36,900  Level FlightAware
Sat 10:19:52 35.6450 25.2860 127° Southeast 552 635 36,900  Level FlightAware
Sat 10:20:37 35.5830 25.3860 127° Southeast 552 635 36,900  Level FlightAware
Sat 10:21:27 35.5180 25.4930 127° Southeast 552 635 36,900  Level FlightAware
Sat 10:22:07 35.4660 25.5780 127° Southeast 552 635 36,900  Level FlightAware
Sat 10:22:47 35.4130 25.6630 127° Southeast 552 635 36,900  Level FlightAware
Sat 10:23:27 35.3610 25.7480 127° Southeast 552 635 36,900  Level FlightAware
Sat 10:24:17 35.2960 25.8540 127° Southeast 552 635 36,900  Level FlightAware
Sat 10:24:57 35.2430 25.9390 127° Southeast 552 635 36,900  Level FlightAware
Sat 10:25:37 35.1910 26.0240 127° Southeast 552 635 36,900  Level FlightAware
Sat 10:26:17 35.1390 26.1090 127° Southeast 552 635 36,900  Level FlightAware
Sat 10:26:57 35.0870 26.1940 127° Southeast 552 635 36,900  Level FlightAware
Sat 10:27:47 35.0210 26.3000 127° Southeast 552 635 36,900  Level FlightAware
Sat 10:28:27 34.9690 26.3840 127° Southeast 552 635 36,900  Level FlightAware
Sat 10:29:07 34.9170 26.4690 127° Southeast 552 635 36,900  Level FlightAware
Sat 10:29:47 34.8650 26.5530 127° Southeast 552 635 36,900  Level FlightAware
Sat 10:32:00 34.7567 26.9132 110° East  Level Estimated
Sat 10:33:00 34.7075 27.0753 110° East  Level Estimated
Sat 10:34:00 34.6581 27.2373 110° East  Level Estimated
Sat 10:35:00 34.6084 27.3991 110° East  Level Estimated
Sat 10:36:00 34.5586 27.5607 110° East  Level Estimated
Sat 10:37:00 34.5085 27.7221 111° Southeast  Level Estimated
Sat 10:38:00 34.4583 27.8833 111° Southeast  Level Estimated
Sat 10:39:00 34.4078 28.0443 111° Southeast  Level Estimated
Sat 10:40:00 34.3571 28.2051 111° Southeast  Level Estimated
Sat 10:40:32 34.2050 28.7510 111° Southeast 565 650 36,900  Level FlightAware
Sat 10:41:07 34.1720 28.8420 114° Southeast 565 650 36,900  Level FlightAware
Sat 10:41:52 34.1300 28.9630 113° Southeast 565 650 36,900 63 Level FlightAware
Sat 10:42:42 34.0740 29.1210 113° Southeast 568 654 37,000 71 Climbing FlightAware
Sat 10:43:17 34.0410 29.2130 113° Southeast 568 654 37,000 -75 Level FlightAware
Sat 10:44:02 33.9900 29.3550 113° Southeast 569 655 36,900 -75 Descending FlightAware
Sat 10:44:37 33.9570 29.4460 114° Southeast 568 654 36,900  Level FlightAware
Sat 10:45:27 33.9000 29.6040 113° Southeast 569 655 36,900  Level FlightAware
Sat 10:46:22 33.8480 29.7480 113° Southeast 569 655 36,900  Level FlightAware
Sat 10:47:12 33.7970 29.8860 114° Southeast 569 655 36,900  Level FlightAware
Sat 10:48:12 33.7570 30.0690 105° East 562 647 36,900  Level FlightAware
Sat 10:49:27 33.7530 30.3160 91° East 559 643 36,900  Level FlightAware
Sat 10:50:57 33.7500 30.5920 91° East 559 643 36,900  Level FlightAware
Sat 10:51:47 33.7470 30.7510 91° East 558 642 36,900  Level FlightAware
Sat 10:52:27 33.7450 30.8750 91° East 558 642 36,900  Level FlightAware
Sat 10:53:12 33.7420 31.0120 91° East 556 640 36,900  Level FlightAware
Sat 10:53:52 33.7400 31.1440 91° East 553 636 36,900  Level FlightAware
Sat 10:55:32 33.7340 31.4390 91° East 548 631 36,900  Level FlightAware
Sat 10:56:52 33.7280 31.6810 92° East 547 629 36,900 43 Level FlightAware
Sat 10:57:52 33.6970 31.8600 102° East 548 631 37,000  Climbing FlightAware
Sat 10:59:02 33.6080 32.0410 121° Southeast 544 626 36,900 -55 Descending FlightAware
Sat 10:59:42 33.5560 32.1440 121° Southeast 545 627 36,900  Level FlightAware
Sat 11:00:22 33.4990 32.2540 122° Southeast 545 627 36,900 -635 Level FlightAware
Sat 11:01:07 33.4400 32.3690 122° Southeast 546 628 36,000 -1,341 Descending FlightAware
Sat 11:01:47 33.3870 32.4740 121° Southeast 554 638 35,000 -1,500 Descending FlightAware
Sat 11:02:27 33.3320 32.5810 122° Southeast 553 636 34,000 -1,271 Descending FlightAware
Sat 11:03:12 33.2730 32.6980 121° Southeast 543 625 33,200 -1,129 Descending FlightAware
Sat 11:03:52 33.2160 32.8080 122° Southeast 538 619 32,400 -675 Descending FlightAware
Sat 11:04:32 33.1720 32.8940 121° Southeast 537 618 32,300 -2,080 Descending FlightAware
Sat 11:05:07 33.1250 32.9850 122° Southeast 515 593 29,800 -3,000 Descending FlightAware
Sat 11:06:12 33.0450 33.1420 121° Southeast 497 572 27,300 -2,345 Descending FlightAware
Sat 11:06:57 32.9900 33.2500 121° Southeast 477 549 25,500 -2,325 Descending FlightAware
Sat 11:07:32 32.9520 33.3240 121° Southeast 466 536 24,200 -975 Descending FlightAware
Sat 11:08:17 32.9070 33.4130 121° Southeast 466 536 24,200 -2,067 Level FlightAware
Sat 11:09:02 32.8500 33.5200 122° Southeast 431 496 21,100 -3,106 Descending FlightAware
Sat 11:09:42 32.8110 33.5960 121° Southeast 420 483 19,800 -1,906 Descending FlightAware
Sat 11:10:27 32.7650 33.6850 122° Southeast 407 468 18,400 -1,835 Descending FlightAware
Sat 11:11:07 32.7260 33.7590 122° Southeast 394 453 17,200 -1,835 Descending FlightAware
Sat 11:11:52 32.6830 33.8410 122° Southeast 383 441 15,800 -1,765 Descending FlightAware
Sat 11:12:32 32.6460 33.9130 121° Southeast 381 438 14,700 -1,725 Descending FlightAware
Sat 11:13:12 32.6150 33.9880 116° Southeast 384 442 13,500 -1,765 Descending FlightAware
Sat 11:13:57 32.5860 34.0800 110° East 385 443 12,200 -1,694 Descending FlightAware
Sat 11:14:37 32.5610 34.1580 111° Southeast 381 438 11,100 -1,500 Descending FlightAware
Sat 11:15:17 32.5140 34.2190 132° Southeast 368 423 10,200 -1,029 Descending FlightAware
Sat 11:15:47 32.4800 34.2620 133° Southeast 350 403 9,900 -200 Descending FlightAware
Sat 11:16:17 32.4430 34.2950 143° Southeast 318 366 10,000  Climbing FlightAware
Sat 11:16:42 32.4140 34.3180 146° Southeast 301 346 9,900 -545 Descending FlightAware
Sat 11:17:12 32.3800 34.3470 144° Southeast 293 337 9,500 -900 Descending FlightAware
Sat 11:17:22 32.3690 34.3560 145° Southeast 292 336 9,300 -343 Descending FlightAware
Sat 11:17:47 32.3450 34.3770 144° Southeast 292 336 9,300  Level FlightAware
Sat 11:18:17 32.3170 34.4010 144° Southeast 292 336 9,300  Level FlightAware
Sat 11:18:37 32.2990 34.4170 143° Southeast 292 336 9,300  Level FlightAware
Sat 11:18:57 32.2800 34.4320 146° Southeast 292 336 9,300 -64 Level FlightAware
Sat 11:21:00 32.1166 34.7168 133° Southeast  Level FlightAware
Sat 11:22:00 32.0201 34.8398 131° Southeast  Level FlightAware
Sat 11:23:00 32.0000 34.8667 131° Southeast  Level FlightAware
Sat 11:23:17 32.4030 34.3750 131° Southeast 231 266 9,000  Level FlightAware
Sat 11:23:47 32.4200 34.3420 301° West 234 269 9,000 -109 Level FlightAware
Sat 11:24:12 32.4270 34.3130 286° West 232 267 8,900 -150 Descending FlightAware
Sat 11:24:27 32.4250 34.2950 263° West 238 274 8,900  Level FlightAware
Sat 11:24:37 32.4190 34.2810 243° Southwest 244 281 8,900  Level FlightAware
Sat 11:24:47 32.4130 34.2720 232° Southwest 249 287 8,900  Level FlightAware
Sat 11:25:07 32.3910 34.2580 208° Southwest 262 302 8,900 -200 Level FlightAware
Sat 11:25:17 32.3800 34.2560 189° South 270 311 8,800 -1,200 Descending FlightAware
Sat 11:25:37 32.3560 34.2640 164° South 284 327 8,300 -1,543 Descending FlightAware
Sat 11:25:52 32.3420 34.2810 134° Southeast 293 337 7,900 -840 Descending FlightAware
Sat 11:26:27 32.3180 34.3280 121° Southeast 298 343 7,600 -514 Descending FlightAware
Sat 11:29:00 32.1376 34.6888 132° Southeast  Level FlightAware
Sat 11:30:00 32.0437 34.8085 131° Southeast  Level FlightAware
Sat 11:31:00 32.0000 34.8667 131° Southeast  Level FlightAware
Sat 11:32:00 32.0095 34.8769 131° Southeast  Level Estimated
Sat 11:33:00 32.0095 34.8769 131° Southeast  Level Estimated
Sat 11:34:00 32.0095 34.8769 131° Southeast  Level Estimated
Sat 11:35:00 32.0095 34.8769 131° Southeast  Level Estimated
Sat 11:36:00 32.0095 34.8769 131° Southeast  Level Estimated
Sat 11:37:00 32.0095 34.8769 131° Southeast  Level Estimated
Sat 11:38:00 32.0095 34.8769 131° Southeast  Level Estimated
Sat 11:39:00 32.0095 34.8769 131° Southeast  Level Estimated
Sat 11:40:00 32.0095 34.8769 131° Southeast  Level Estimated
Sat 11:41:00 32.0095 34.8769 131° Southeast  Level Estimated
Sat 11:42:00 32.0095 34.8769 131° Southeast  Level Estimated

Login

Don't have an account? Register now (free) for customized features, flight alerts, and more!